Aérodrome :
LOGIN :

S'inscrire | Disclaimer

   EN    FR    IT 

 










Légende :    VFR   VFR Marginal   IFR   IFR Intensif   IFR Très Intensif
Visi : 
Plafond : 
>= 8 km
>= 3000ft
5 à 8 km
1000 à 3000 ft
1500m à 5 km
500 à 1000 ft
800 à 1500m
200 à 500 ft
< 800m
< 200 ft
Symboles :   Orages  Brouillard  Fortes neiges  Fortes précipitations  Vent > 20 kt
SIGMETs :   Divers  Orages  Givrage  Turbulence  Onde Orograph.  Cendres Volcan.






- Altitude de l'aérodrome : 1345 ft
- Code IATA : FRZ


ETHF - Fritzlar

DERNIER METAR :
  • 301010Z 30019G32KT 5000 -SHRA FEW005 BKN018CB 03/01 Q1014 WHT WHT TEMPO YLO

METARs EXPIRÉS :
  • 300957Z 25007G27KT 3000 SHRA FEW005 BKN020CB 03/02 Q1014 YLO WHT TEMPO YLO
  • 300920Z 23007KT 8000 -DZ FEW005 BKN020 BKN040 03/01 Q1013 WHT WHT TEMPO YLO
  • 300847Z 22016KT 8000 FEW005 SCT010 BKN020 02/01 Q1013 WHT WHT TEMPO YLO
  • 300832Z 21016KT 5000 -DZ FEW005 SCT010 BKN020 02/01 Q1013 WHT WHT TEMPO YLO
  • 300820Z 22012KT 9000 -DZ FEW005 SCT010 BKN020 02/00 Q1013 WHT WHT TEMPO YLO
  • 300758Z 22015KT 9000 -DZ FEW005 SCT010 BKN020 02/00 Q1013 WHT WHT TEMPO YLO

TAF AMD TAF ETHF
Valide du 30 à 10h jusqu'au 30 à 18h UTC


301015Z 3010/3018 28015G25KT 9999 NSW FEW010 BKN020
TEMPO 3010/3018 31020G35KT 3000 SHRA SCT005 BKN015CB BKN020



MET'MAP, la Météo Aéronautique d'un coup d'oeil ! - Copyright ORBIFLY Décembre 2007 - Disclaimer

ORBIFLY MET'MAP TEAM :

Programmation & Développement : Alexandra Zaïnal
Sur une idée originale de : Baudouin d'Aumeries
Soutien technique & logistique : Manuel Goepfert
Assistance : Marc-Olivier Méhu




SOURCES & CREDITS :

   NOAA